Time;durP1;ratioP1;P1;durP2;ratioP2;P2;SDS_P1;SDS_P2;PMS_P1;PMS_P2;Temp;Humidity;BMP_temperature;BMP_pressure;BME280_temperature;BME280_humidity;BME280_pressure;Samples;Min_cycle;Max_cycle;Signal;HPM_P1;HPM_P2
2022/12/21 00:01:20;;;;;;;10.57;5.03;;;7.10;99.90;;;;;;5035937;28;20222;-81
2022/12/21 00:03:50;;;;;;;9.00;5.17;;;7.10;99.90;;;;;;5021100;28;20231;-82
2022/12/21 00:06:17;;;;;;;13.77;6.00;;;7.00;99.90;;;;;;5016224;28;20290;-83
2022/12/21 00:08:47;;;;;;;11.73;5.17;;;7.00;99.90;;;;;;5015645;28;20378;-82
2022/12/21 00:11:15;;;;;;;9.63;5.40;;;6.90;99.90;;;;;;5014378;28;20203;-81
2022/12/21 00:13:42;;;;;;;11.30;5.63;;;6.90;99.90;;;;;;5015617;28;20203;-81
2022/12/21 00:16:13;;;;;;;8.53;5.17;;;6.80;99.90;;;;;;5016681;28;20204;-82
2022/12/21 00:18:40;;;;;;;12.43;5.57;;;6.80;99.90;;;;;;5015951;28;20196;-85
2022/12/21 00:21:09;;;;;;;8.73;5.57;;;6.80;99.90;;;;;;5015656;28;20649;-83
2022/12/21 00:23:37;;;;;;;13.17;5.87;;;6.70;99.90;;;;;;5016189;28;20221;-83
2022/12/21 00:26:07;;;;;;;8.30;4.60;;;6.70;99.90;;;;;;5015960;28;20298;-81
2022/12/21 00:28:34;;;;;;;10.33;5.13;;;6.70;99.90;;;;;;5016445;28;20207;-81
2022/12/21 00:31:06;;;;;;;11.20;5.60;;;6.60;99.90;;;;;;5015965;28;20199;-81
2022/12/21 00:33:33;;;;;;;15.80;7.30;;;6.60;99.90;;;;;;5015835;28;20246;-81
2022/12/21 00:36:00;;;;;;;17.03;7.37;;;6.60;99.90;;;;;;5017140;28;20611;-81
2022/12/21 00:38:27;;;;;;;11.07;6.10;;;6.60;99.90;;;;;;5035731;28;20198;-81
2022/12/21 00:40:57;;;;;;;14.67;6.30;;;6.60;99.90;;;;;;5035278;28;20582;-81
2022/12/21 00:43:26;;;;;;;10.97;6.00;;;6.60;99.90;;;;;;5035836;28;20258;-81
2022/12/21 00:45:53;;;;;;;15.60;6.40;;;6.50;99.90;;;;;;5017611;28;20207;-80
2022/12/21 00:48:20;;;;;;;12.67;6.27;;;6.60;99.90;;;;;;5015585;28;20571;-81
2022/12/21 00:50:47;;;;;;;17.53;5.90;;;6.60;99.90;;;;;;5015165;28;20235;-81
2022/12/21 00:53:14;;;;;;;13.90;5.43;;;6.60;99.90;;;;;;5015341;28;20203;-80
2022/12/21 00:55:41;;;;;;;13.23;5.27;;;6.70;99.90;;;;;;5015679;28;20535;-80
2022/12/21 00:58:08;;;;;;;16.40;5.93;;;6.60;99.90;;;;;;5015150;28;20274;-80
2022/12/21 01:00:37;;;;;;;11.13;5.87;;;6.60;99.90;;;;;;5014935;28;20210;-81
2022/12/21 01:03:04;;;;;;;14.37;5.10;;;6.60;99.90;;;;;;5017431;28;20245;-81
2022/12/21 01:05:32;;;;;;;12.93;5.53;;;6.70;99.90;;;;;;5034059;28;20241;-81
2022/12/21 01:07:59;;;;;;;16.93;5.70;;;6.60;99.90;;;;;;5032661;28;20677;-81
2022/12/21 01:10:26;;;;;;;9.70;4.17;;;6.60;99.90;;;;;;5015308;28;20226;-80
2022/12/21 01:12:53;;;;;;;11.40;5.10;;;6.60;99.90;;;;;;5015040;28;20210;-81
2022/12/21 01:15:20;;;;;;;12.30;4.33;;;6.50;99.90;;;;;;5014952;28;20230;-81
2022/12/21 01:17:48;;;;;;;12.63;5.13;;;6.50;99.90;;;;;;5015188;28;20210;-80
2022/12/21 01:20:15;;;;;;;12.03;4.80;;;6.40;99.90;;;;;;5015233;28;20199;-79
2022/12/21 01:22:42;;;;;;;13.67;6.17;;;6.40;99.90;;;;;;5017490;28;20210;-82
2022/12/21 01:25:09;;;;;;;11.70;4.80;;;6.40;99.90;;;;;;5034278;28;20234;-82
2022/12/21 01:27:36;;;;;;;10.60;5.73;;;6.30;99.90;;;;;;5034947;28;20202;-81
2022/12/21 01:30:03;;;;;;;8.17;4.87;;;6.30;99.90;;;;;;5033806;28;20245;-81
2022/12/21 01:32:30;;;;;;;8.13;4.33;;;6.30;99.90;;;;;;5034404;28;20222;-81
2022/12/21 01:34:58;;;;;;;10.73;5.53;;;6.20;99.90;;;;;;5034320;28;20286;-81
2022/12/21 01:37:26;;;;;;;14.63;5.67;;;6.20;99.90;;;;;;5033960;28;20225;-81
2022/12/21 01:39:52;;;;;;;10.27;5.20;;;6.20;99.90;;;;;;5032967;28;20306;-80
2022/12/21 01:42:19;;;;;;;11.43;4.87;;;6.20;99.90;;;;;;5014333;28;20484;-80
2022/12/21 01:45:00;;;;;;;8.60;5.20;;;6.20;99.90;;;;;;5014744;28;20223;-81
2022/12/21 01:47:33;;;;;;;8.33;5.03;;;6.10;99.90;;;;;;5015010;28;20195;-82
2022/12/21 01:50:10;;;;;;;8.23;4.77;;;6.10;99.90;;;;;;5014461;28;20291;-81
2022/12/21 01:52:37;;;;;;;9.20;5.00;;;6.00;99.90;;;;;;5015197;28;20310;-79
2022/12/21 01:55:06;;;;;;;8.83;4.33;;;6.00;99.90;;;;;;5015773;28;20195;-83
2022/12/21 01:57:34;;;;;;;7.77;4.83;;;6.00;99.90;;;;;;5014691;28;20203;-81
2022/12/21 02:00:04;;;;;;;11.43;5.00;;;6.00;99.90;;;;;;5015073;28;20223;-81
2022/12/21 02:02:34;;;;;;;18.27;7.27;;;5.90;99.90;;;;;;5015118;28;20318;-80
2022/12/21 02:05:12;;;;;;;22.70;8.10;;;6.00;99.90;;;;;;5014852;28;20265;-80
2022/12/21 02:07:41;;;;;;;17.50;7.67;;;6.00;99.90;;;;;;5035416;28;20285;-81
2022/12/21 02:10:10;;;;;;;18.33;7.93;;;6.00;99.90;;;;;;5030160;28;20294;-81
2022/12/21 02:12:38;;;;;;;21.70;8.07;;;6.10;99.90;;;;;;5014620;28;20207;-81
2022/12/21 02:15:06;;;;;;;20.03;7.87;;;6.10;99.90;;;;;;5014619;28;20205;-81
2022/12/21 02:17:44;;;;;;;16.03;6.80;;;6.10;99.90;;;;;;5014332;28;20286;-83
2022/12/21 02:20:47;;;;;;;10.00;6.30;;;6.10;99.90;;;;;;5013534;28;20290;-82
2022/12/21 02:23:49;;;;;;;14.30;6.17;;;6.10;99.90;;;;;;5014000;28;20215;-81
2022/12/21 02:26:41;;;;;;;13.63;6.17;;;6.10;99.90;;;;;;5013202;28;20195;-83
2022/12/21 02:29:37;;;;;;;12.37;6.63;;;6.10;99.90;;;;;;5013279;28;20387;-80
2022/12/21 02:32:13;;;;;;;8.90;5.07;;;6.00;99.90;;;;;;5011708;28;20765;-82
2022/12/21 02:34:48;;;;;;;11.80;6.47;;;6.00;99.90;;;;;;5026658;28;20197;-82
2022/12/21 02:37:21;;;;;;;10.00;6.30;;;5.90;99.90;;;;;;5032870;28;20592;-81
2022/12/21 02:39:58;;;;;;;8.27;5.20;;;5.90;99.90;;;;;;5014598;28;20614;-79
2022/12/21 02:45:35;;;;;;;6.93;5.47;;;5.80;99.90;;;;;;4952610;28;20228;-82
2022/12/21 02:48:08;;;;;;;11.30;6.00;;;5.70;99.90;;;;;;5002392;28;20233;-83
2022/12/21 02:50:40;;;;;;;15.53;6.70;;;5.70;99.90;;;;;;5013299;28;20198;-82
2022/12/21 02:53:13;;;;;;;9.00;5.97;;;5.70;99.90;;;;;;5013255;28;20548;-81
2022/12/21 02:55:40;;;;;;;12.40;7.37;;;5.70;99.90;;;;;;5013827;28;20197;-82
2022/12/21 02:58:16;;;;;;;16.73;6.77;;;5.80;99.90;;;;;;5021437;28;20293;-82
2022/12/21 03:00:56;;;;;;;18.37;7.57;;;5.80;99.90;;;;;;5033007;28;20209;-82
2022/12/21 03:03:50;;;;;;;16.23;7.23;;;5.90;99.90;;;;;;5014060;28;20318;-81
2022/12/21 03:06:38;;;;;;;10.20;6.60;;;5.90;99.90;;;;;;5013738;28;20198;-82
2022/12/21 03:09:16;;;;;;;13.30;6.37;;;5.90;99.90;;;;;;5013106;28;20195;-82
2022/12/21 03:11:54;;;;;;;14.47;7.00;;;5.80;99.90;;;;;;5013082;28;20199;-82
2022/12/21 03:14:29;;;;;;;17.70;7.63;;;5.90;99.90;;;;;;5012510;28;20222;-82
2022/12/21 03:17:01;;;;;;;14.43;6.60;;;5.90;99.90;;;;;;5013418;28;20195;-83
2022/12/21 03:19:38;;;;;;;9.47;5.87;;;5.90;99.90;;;;;;5013114;28;20234;-80
2022/12/21 03:22:10;;;;;;;13.10;6.47;;;5.90;99.90;;;;;;5031573;28;20277;-81
2022/12/21 03:24:42;;;;;;;11.20;6.27;;;5.90;99.90;;;;;;5033235;28;20305;-82
2022/12/21 03:27:14;;;;;;;13.53;6.70;;;5.90;99.90;;;;;;5033577;28;20274;-81
2022/12/21 03:29:44;;;;;;;9.33;6.17;;;5.80;99.90;;;;;;5026347;28;20192;-81
2022/12/21 03:32:15;;;;;;;8.97;5.60;;;5.80;99.90;;;;;;5013322;28;20518;-82
2022/12/21 03:34:47;;;;;;;11.00;6.73;;;5.80;99.90;;;;;;5013559;28;20199;-81
2022/12/21 03:37:18;;;;;;;8.23;6.43;;;5.80;99.90;;;;;;5013008;28;20208;-81
2022/12/21 03:39:50;;;;;;;12.70;7.50;;;5.80;99.90;;;;;;5012461;28;20207;-81
2022/12/21 03:42:23;;;;;;;10.47;7.60;;;5.70;99.90;;;;;;5012565;28;20200;-82
2022/12/21 03:44:54;;;;;;;10.33;6.73;;;5.70;99.90;;;;;;5013176;28;20302;-80
2022/12/21 03:47:27;;;;;;;8.87;6.33;;;5.60;99.90;;;;;;5025373;28;20205;-82
2022/12/21 03:49:58;;;;;;;10.33;6.30;;;5.50;99.90;;;;;;5035812;28;20221;-81
2022/12/21 03:52:30;;;;;;;10.83;7.13;;;5.50;99.90;;;;;;5026106;28;20235;-82
2022/12/21 03:55:05;;;;;;;9.10;6.70;;;5.50;99.90;;;;;;5016764;28;20215;-82
2022/12/21 03:57:33;;;;;;;9.17;6.77;;;5.40;99.90;;;;;;5016431;28;20283;-81
2022/12/21 04:00:03;;;;;;;9.27;7.40;;;5.40;99.90;;;;;;5016563;28;20202;-83
2022/12/21 04:02:37;;;;;;;9.23;6.87;;;5.40;99.90;;;;;;5016740;28;20234;-81
2022/12/21 04:05:11;;;;;;;7.87;6.60;;;5.40;99.90;;;;;;5016138;28;20241;-82
2022/12/21 04:07:40;;;;;;;9.77;6.30;;;5.40;99.90;;;;;;5016128;28;20655;-82
2022/12/21 04:10:10;;;;;;;17.87;8.20;;;5.40;99.90;;;;;;5016160;28;20294;-83
2022/12/21 04:12:36;;;;;;;15.03;8.07;;;5.40;99.90;;;;;;5016466;28;20230;-83
2022/12/21 04:15:04;;;;;;;12.80;8.53;;;5.40;99.90;;;;;;5015829;28;20195;-82
2022/12/21 04:17:31;;;;;;;11.10;7.53;;;5.40;99.90;;;;;;5015784;28;20580;-83
2022/12/21 04:19:59;;;;;;;7.67;6.63;;;5.40;99.90;;;;;;5015497;28;20596;-82
2022/12/21 04:28:11;;;;;;;8.67;6.53;;;5.30;99.90;;;;;;5015451;28;20194;-83
2022/12/21 04:30:39;;;;;;;10.90;7.37;;;5.30;99.90;;;;;;5014863;28;20206;-82
2022/12/21 04:33:08;;;;;;;12.83;7.33;;;5.30;99.90;;;;;;5013966;28;20278;-80
2022/12/21 04:35:35;;;;;;;12.73;6.90;;;5.30;99.90;;;;;;5014885;28;20237;-80
2022/12/21 04:38:03;;;;;;;9.00;7.20;;;5.30;99.90;;;;;;5014752;28;20202;-82
2022/12/21 04:40:30;;;;;;;10.50;5.97;;;5.30;99.90;;;;;;5014814;28;20207;-83
2022/12/21 04:42:57;;;;;;;8.23;6.03;;;5.30;99.90;;;;;;5015052;28;20282;-82
2022/12/21 04:45:24;;;;;;;7.53;5.97;;;5.20;99.90;;;;;;5015215;28;20263;-81
2022/12/21 04:47:53;;;;;;;10.60;6.67;;;5.10;99.90;;;;;;5015060;28;20200;-82
2022/12/21 04:50:20;;;;;;;7.57;6.30;;;5.10;99.90;;;;;;5014963;28;20506;-83
2022/12/21 04:52:47;;;;;;;9.77;7.07;;;5.20;99.90;;;;;;5015078;28;20269;-82
2022/12/21 04:55:16;;;;;;;7.93;5.53;;;5.20;99.90;;;;;;5015546;28;20282;-82
2022/12/21 04:57:43;;;;;;;7.73;5.70;;;5.10;99.90;;;;;;5015942;28;20287;-82
2022/12/21 05:00:11;;;;;;;7.80;5.40;;;5.10;99.90;;;;;;5015058;28;20195;-82
2022/12/21 05:02:38;;;;;;;9.43;5.70;;;5.10;99.90;;;;;;5015343;28;20398;-80
2022/12/21 05:05:05;;;;;;;8.50;5.83;;;5.10;99.90;;;;;;5014892;28;20269;-82
2022/12/21 05:07:32;;;;;;;8.57;5.63;;;5.10;99.90;;;;;;5015231;28;20206;-84
2022/12/21 05:09:59;;;;;;;8.57;5.37;;;5.10;99.90;;;;;;5021245;28;20221;-82
2022/12/21 05:12:28;;;;;;;12.93;6.03;;;5.10;99.90;;;;;;5035448;28;20289;-82
2022/12/21 05:14:54;;;;;;;16.27;5.93;;;5.20;99.90;;;;;;5030318;28;20270;-82
2022/12/21 05:17:22;;;;;;;12.03;5.27;;;5.30;99.90;;;;;;5015378;28;20726;-83
2022/12/21 05:19:48;;;;;;;17.77;6.23;;;5.30;99.90;;;;;;5015675;28;20264;-83
2022/12/21 05:22:17;;;;;;;13.17;5.77;;;5.40;99.90;;;;;;5014942;28;20258;-83
2022/12/21 05:24:45;;;;;;;10.80;5.00;;;5.50;99.90;;;;;;5015538;28;20223;-82
2022/12/21 05:27:11;;;;;;;7.43;4.73;;;5.40;99.90;;;;;;5015282;28;20230;-81
2022/12/21 05:29:40;;;;;;;7.20;4.80;;;5.40;99.90;;;;;;5015293;28;20290;-82
2022/12/21 05:32:07;;;;;;;11.93;5.17;;;5.40;99.90;;;;;;5015086;28;20579;-82
2022/12/21 05:34:34;;;;;;;12.57;5.87;;;5.40;99.90;;;;;;5015122;28;20265;-82
2022/12/21 05:37:01;;;;;;;15.60;5.83;;;5.40;99.90;;;;;;5015265;28;20815;-83
2022/12/21 05:39:28;;;;;;;12.30;5.20;;;5.40;99.90;;;;;;5015457;28;20192;-82
2022/12/21 05:41:55;;;;;;;7.10;4.20;;;5.50;99.90;;;;;;5014737;28;20235;-83
2022/12/21 05:44:21;;;;;;;20.60;5.80;;;5.50;99.90;;;;;;5015319;28;20203;-83
2022/12/21 05:46:50;;;;;;;19.43;5.43;;;5.50;99.90;;;;;;5014385;28;20242;-82
2022/12/21 05:49:17;;;;;;;14.90;5.90;;;5.60;99.90;;;;;;5014095;28;20203;-83
2022/12/21 05:51:46;;;;;;;16.33;6.10;;;5.60;99.90;;;;;;5014642;28;20326;-83
2022/12/21 05:54:13;;;;;;;16.93;5.97;;;5.60;99.90;;;;;;5014351;28;20254;-83
2022/12/21 05:56:40;;;;;;;13.43;6.23;;;5.70;99.90;;;;;;5014481;28;20290;-83
2022/12/21 05:59:07;;;;;;;15.57;6.13;;;5.70;99.90;;;;;;5014803;28;20239;-81
2022/12/21 06:01:34;;;;;;;12.23;5.73;;;5.80;99.90;;;;;;5014484;28;20230;-82
2022/12/21 06:04:03;;;;;;;16.93;6.30;;;5.80;99.90;;;;;;5013938;28;20242;-80
2022/12/21 06:06:29;;;;;;;12.07;5.80;;;5.90;99.90;;;;;;5014027;28;20305;-81
2022/12/21 06:08:56;;;;;;;12.50;6.23;;;5.90;99.90;;;;;;5014014;28;20223;-81
2022/12/21 06:11:25;;;;;;;13.80;5.20;;;5.90;99.90;;;;;;5013090;28;20203;-83
2022/12/21 06:13:53;;;;;;;10.63;6.37;;;5.90;99.90;;;;;;5013542;28;20231;-83
2022/12/21 06:16:22;;;;;;;12.90;5.67;;;5.80;99.90;;;;;;5012915;28;20203;-86
2022/12/21 06:18:49;;;;;;;17.23;7.20;;;5.80;99.90;;;;;;5013849;28;20203;-83
2022/12/21 06:21:18;;;;;;;18.83;6.17;;;5.90;99.90;;;;;;5014096;28;20283;-81
2022/12/21 06:23:46;;;;;;;22.17;6.50;;;5.80;99.90;;;;;;5013387;28;20210;-79
2022/12/21 06:26:16;;;;;;;16.33;5.80;;;5.90;99.90;;;;;;5014516;28;20950;-83
2022/12/21 06:28:46;;;;;;;13.73;5.93;;;5.90;99.90;;;;;;5014784;28;20267;-84
2022/12/21 06:31:14;;;;;;;12.20;6.20;;;5.90;99.90;;;;;;5013529;28;20184;-79
2022/12/21 06:33:41;;;;;;;18.63;7.07;;;5.90;99.90;;;;;;5013482;28;20294;-84
2022/12/21 06:36:09;;;;;;;15.03;7.73;;;5.90;99.90;;;;;;5014433;28;20228;-82
2022/12/21 06:38:38;;;;;;;14.57;6.43;;;5.90;99.90;;;;;;5013619;28;20495;-83
2022/12/21 06:41:07;;;;;;;19.80;7.30;;;5.90;99.90;;;;;;5014973;28;20583;-84
2022/12/21 06:43:36;;;;;;;15.13;6.73;;;5.90;99.90;;;;;;5014906;28;20246;-84
2022/12/21 06:46:05;;;;;;;15.53;6.83;;;5.90;99.90;;;;;;5013595;28;20826;-79
2022/12/21 06:48:34;;;;;;;15.93;6.90;;;5.90;99.90;;;;;;5013702;28;20206;-83
2022/12/21 06:51:03;;;;;;;16.10;7.30;;;5.90;99.90;;;;;;5030375;28;20317;-84
2022/12/21 06:53:32;;;;;;;18.60;6.90;;;6.00;99.90;;;;;;5032032;28;20195;-85
2022/12/21 06:56:01;;;;;;;14.63;7.07;;;6.00;99.90;;;;;;5031504;28;20277;-85
2022/12/21 06:58:29;;;;;;;16.60;7.30;;;6.00;99.90;;;;;;5034317;28;20306;-85
2022/12/21 07:00:56;;;;;;;16.33;7.20;;;6.10;99.90;;;;;;5027128;28;20242;-85
2022/12/21 07:03:23;;;;;;;16.30;7.07;;;6.00;99.90;;;;;;5014911;28;20226;-83
2022/12/21 07:05:50;;;;;;;24.63;8.07;;;6.00;99.90;;;;;;5031322;28;20700;-84
2022/12/21 07:08:17;;;;;;;24.50;8.60;;;6.10;99.90;;;;;;5034441;28;20256;-84
2022/12/21 07:10:44;;;;;;;24.73;8.50;;;6.10;99.90;;;;;;5034011;28;20285;-84
2022/12/21 07:13:13;;;;;;;17.23;7.40;;;6.10;99.90;;;;;;5033916;28;20241;-84
2022/12/21 07:15:39;;;;;;;18.83;7.43;;;6.10;99.90;;;;;;5034406;28;20277;-85
2022/12/21 07:18:07;;;;;;;14.53;8.10;;;6.10;99.90;;;;;;5032527;28;20190;-84
2022/12/21 07:20:33;;;;;;;16.43;8.17;;;6.00;99.90;;;;;;5013981;28;20596;-85
2022/12/21 07:23:00;;;;;;;23.07;9.47;;;6.00;99.90;;;;;;5015200;28;20211;-84
2022/12/21 07:25:27;;;;;;;27.43;10.50;;;6.00;99.90;;;;;;5018032;28;20227;-84
2022/12/21 07:27:57;;;;;;;18.17;9.67;;;6.00;99.90;;;;;;5017382;28;20192;-84
2022/12/21 07:30:26;;;;;;;31.30;11.07;;;6.00;99.90;;;;;;5018550;28;20200;-85
2022/12/21 07:32:54;;;;;;;19.57;9.00;;;6.00;99.90;;;;;;5018277;28;20264;-84
2022/12/21 07:35:21;;;;;;;18.40;8.03;;;6.00;99.90;;;;;;5017478;28;20206;-83
2022/12/21 07:37:48;;;;;;;20.50;9.50;;;5.90;99.90;;;;;;5017736;28;20230;-84
2022/12/21 07:40:16;;;;;;;20.77;8.30;;;5.90;99.90;;;;;;5018020;28;20203;-84
2022/12/21 07:42:44;;;;;;;27.63;10.13;;;5.80;99.90;;;;;;5017068;28;20203;-84
2022/12/21 07:45:11;;;;;;;28.27;11.17;;;5.90;99.90;;;;;;5016438;28;20304;-84
2022/12/21 07:47:39;;;;;;;22.73;10.17;;;5.90;99.90;;;;;;5016420;28;20202;-83
2022/12/21 07:50:08;;;;;;;32.07;11.93;;;6.00;99.90;;;;;;5034157;28;20203;-84
2022/12/21 07:52:38;;;;;;;21.90;10.27;;;6.00;99.90;;;;;;5036026;28;20569;-84
2022/12/21 07:55:06;;;;;;;26.27;11.13;;;6.10;99.90;;;;;;5040922;28;20546;-84
2022/12/21 07:57:33;;;;;;;30.20;11.13;;;6.10;99.90;;;;;;5045033;28;20209;-84
2022/12/21 07:59:59;;;;;;;29.97;11.73;;;6.10;99.90;;;;;;5037332;28;20249;-84
2022/12/21 08:02:26;;;;;;;29.90;11.60;;;6.10;99.90;;;;;;5040675;28;20237;-84
2022/12/21 08:04:55;;;;;;;33.03;13.03;;;6.10;99.90;;;;;;5050970;28;20381;-85
2022/12/21 08:07:22;;;;;;;25.60;13.00;;;6.00;99.90;;;;;;5038231;28;20244;-87
2022/12/21 08:09:51;;;;;;;34.97;15.57;;;6.00;99.90;;;;;;5019509;28;20213;-83
2022/12/21 08:12:18;;;;;;;25.20;12.10;;;6.00;99.90;;;;;;5019795;28;20229;-81
2022/12/21 08:14:44;;;;;;;34.23;13.23;;;6.00;99.90;;;;;;5037127;28;20286;-86
2022/12/21 08:17:11;;;;;;;23.30;13.03;;;5.90;99.90;;;;;;5036843;28;20273;-86
2022/12/21 08:19:38;;;;;;;26.23;12.93;;;5.90;99.90;;;;;;5037160;28;20198;-85
2022/12/21 08:22:06;;;;;;;25.87;13.57;;;5.80;99.90;;;;;;5026141;28;20291;-86
2022/12/21 08:24:33;;;;;;;31.27;14.13;;;5.80;99.90;;;;;;5017276;28;20279;-85
2022/12/21 08:27:00;;;;;;;23.60;13.27;;;5.80;99.90;;;;;;5026528;28;20225;-85
2022/12/21 08:29:27;;;;;;;31.40;14.40;;;5.80;99.90;;;;;;5036139;28;20600;-85
2022/12/21 08:31:54;;;;;;;24.57;14.17;;;5.90;99.90;;;;;;5036024;28;20277;-84
2022/12/21 08:34:21;;;;;;;28.90;14.00;;;5.90;99.90;;;;;;5021154;28;20626;-84
2022/12/21 08:36:48;;;;;;;29.63;16.03;;;5.90;99.90;;;;;;5015959;28;20210;-84
2022/12/21 08:39:16;;;;;;;31.20;16.50;;;5.90;99.90;;;;;;5015578;28;20203;-82
2022/12/21 08:41:43;;;;;;;34.27;17.03;;;5.90;99.90;;;;;;5015809;28;20593;-85
2022/12/21 08:44:10;;;;;;;32.67;17.53;;;5.90;99.90;;;;;;5016631;28;20294;-84
2022/12/21 08:46:37;;;;;;;37.00;17.63;;;6.00;99.90;;;;;;5016432;28;20773;-85
2022/12/21 08:49:04;;;;;;;37.37;17.43;;;6.00;99.90;;;;;;5016719;28;20199;-85
2022/12/21 08:51:31;;;;;;;42.37;18.37;;;6.00;99.90;;;;;;5015765;28;20255;-86
2022/12/21 08:53:58;;;;;;;41.77;18.83;;;6.00;99.90;;;;;;5015886;28;20792;-84
2022/12/21 08:56:26;;;;;;;47.40;21.57;;;6.00;99.90;;;;;;5016172;28;20230;-82
2022/12/21 08:58:54;;;;;;;39.13;19.33;;;6.10;99.90;;;;;;5015153;28;20867;-82
2022/12/21 09:01:22;;;;;;;40.43;19.07;;;6.10;99.90;;;;;;5015499;28;20321;-85
2022/12/21 09:03:49;;;;;;;44.33;19.63;;;6.20;99.90;;;;;;5015474;28;20206;-84
2022/12/21 09:06:16;;;;;;;53.73;21.07;;;6.20;99.90;;;;;;5015881;28;20219;-85
2022/12/21 09:08:43;;;;;;;39.73;20.07;;;6.20;99.90;;;;;;5017062;28;20213;-86
2022/12/21 09:11:13;;;;;;;50.73;22.63;;;6.20;99.90;;;;;;5016097;28;20210;-82
2022/12/21 09:13:42;;;;;;;45.37;21.47;;;6.20;99.90;;;;;;5014702;28;20289;-84
2022/12/21 09:16:13;;;;;;;45.87;21.97;;;6.20;99.90;;;;;;5015044;28;20200;-85
2022/12/21 09:18:40;;;;;;;44.90;22.90;;;6.20;99.90;;;;;;5014856;28;20583;-85
2022/12/21 09:21:07;;;;;;;52.67;23.17;;;6.20;99.90;;;;;;5015692;28;20213;-84
2022/12/21 09:23:34;;;;;;;47.90;23.03;;;6.20;99.90;;;;;;5015335;28;20203;-84
2022/12/21 09:26:02;;;;;;;48.80;22.07;;;6.20;99.90;;;;;;5015840;28;20316;-84
2022/12/21 09:28:28;;;;;;;49.30;21.23;;;6.30;99.90;;;;;;5015616;28;20194;-85
2022/12/21 09:30:57;;;;;;;52.80;23.17;;;6.30;99.90;;;;;;5027778;28;20285;-84
2022/12/21 09:33:24;;;;;;;53.43;23.83;;;6.30;99.90;;;;;;5030140;28;20218;-88
2022/12/21 09:35:52;;;;;;;52.80;24.67;;;6.30;99.90;;;;;;5036013;28;20206;-82
2022/12/21 09:38:19;;;;;;;55.23;24.83;;;6.40;99.90;;;;;;5035082;28;20211;-87
2022/12/21 09:40:47;;;;;;;58.50;26.73;;;6.40;99.90;;;;;;5020500;28;20214;-87
2022/12/21 09:43:22;;;;;;;52.03;23.30;;;6.50;99.90;;;;;;5015245;28;20282;-89
2022/12/21 09:45:57;;;;;;;52.10;24.13;;;6.50;99.90;;;;;;5014840;28;20230;-84
2022/12/21 09:48:31;;;;;;;46.07;22.33;;;6.50;99.90;;;;;;5014781;28;20214;-86
2022/12/21 09:51:02;;;;;;;59.53;24.23;;;6.50;99.90;;;;;;5015752;28;20258;-89
2022/12/21 09:53:34;;;;;;;45.30;22.50;;;6.60;99.90;;;;;;5024935;28;20807;-87
2022/12/21 09:56:01;;;;;;;49.70;22.27;;;6.60;99.90;;;;;;5035203;28;20206;-83
2022/12/21 09:58:36;;;;;;;47.73;21.10;;;6.60;99.90;;;;;;5035135;28;20195;-84
2022/12/21 10:01:13;;;;;;;46.33;19.93;;;6.70;99.90;;;;;;5031335;28;20233;-83
2022/12/21 10:04:07;;;;;;;42.63;19.47;;;6.80;99.90;;;;;;5032890;28;20277;-81
2022/12/21 10:06:52;;;;;;;45.10;18.37;;;6.90;99.90;;;;;;5018846;28;20224;-80
2022/12/21 10:09:30;;;;;;;40.00;19.17;;;6.90;99.90;;;;;;5029232;28;20338;-81
2022/12/21 10:12:14;;;;;;;43.83;18.83;;;7.00;99.90;;;;;;5025118;28;20282;-80
2022/12/21 10:14:51;;;;;;;40.80;19.53;;;7.10;99.90;;;;;;5031956;28;20293;-81
2022/12/21 10:17:39;;;;;;;40.60;18.10;;;7.10;99.90;;;;;;5024514;28;20568;-81
2022/12/21 10:20:20;;;;;;;38.30;17.80;;;7.30;99.90;;;;;;5027871;28;20190;-81
2022/12/21 10:22:49;;;;;;;40.40;17.33;;;7.30;99.90;;;;;;5052292;28;20209;-83
2022/12/21 10:25:20;;;;;;;40.40;17.63;;;7.50;99.90;;;;;;5027404;28;20245;-83
2022/12/21 10:27:49;;;;;;;51.20;17.43;;;7.70;99.90;;;;;;5014413;28;20216;-82
2022/12/21 10:30:17;;;;;;;32.33;16.80;;;7.70;99.90;;;;;;5013991;28;20211;-82
2022/12/21 10:32:47;;;;;;;45.33;16.93;;;7.80;99.90;;;;;;5020019;28;20282;-82
2022/12/21 10:35:22;;;;;;;42.50;16.40;;;7.90;99.90;;;;;;5024303;28;20291;-81
2022/12/21 10:37:52;;;;;;;36.87;15.47;;;7.90;99.90;;;;;;5012584;28;20194;-84
2022/12/21 10:40:22;;;;;;;36.00;16.67;;;8.00;99.90;;;;;;5040378;28;20206;-80
2022/12/21 10:42:51;;;;;;;44.83;17.70;;;8.00;99.90;;;;;;5025270;28;20210;-81
2022/12/21 10:45:20;;;;;;;39.57;17.60;;;8.00;99.90;;;;;;5023961;28;20228;-79
2022/12/21 10:47:47;;;;;;;45.60;15.57;;;8.00;99.90;;;;;;5025074;28;20223;-83
2022/12/21 10:50:16;;;;;;;56.57;16.27;;;8.00;99.90;;;;;;5018955;28;20202;-83
2022/12/21 10:52:45;;;;;;;34.03;16.33;;;8.10;99.90;;;;;;5029913;28;20239;-85
2022/12/21 10:55:30;;;;;;;34.93;15.27;;;8.10;99.90;;;;;;5013867;28;20820;-86
2022/12/21 10:58:16;;;;;;;35.77;16.90;;;8.20;99.90;;;;;;5016671;28;20207;-84
2022/12/21 11:00:52;;;;;;;40.87;18.47;;;8.30;99.90;;;;;;5018262;28;20195;-83
2022/12/21 11:03:25;;;;;;;33.10;15.33;;;8.30;99.90;;;;;;5017686;28;20285;-83
2022/12/21 11:05:53;;;;;;;36.60;17.73;;;8.30;99.90;;;;;;5017532;28;20221;-82
2022/12/21 11:08:25;;;;;;;39.37;18.03;;;8.30;99.90;;;;;;5017027;28;20706;-83
2022/12/21 11:10:53;;;;;;;33.57;17.47;;;8.40;99.90;;;;;;5025516;28;20198;-82
2022/12/21 11:13:23;;;;;;;44.43;18.47;;;8.40;99.90;;;;;;5033095;28;20285;-82
2022/12/21 11:15:56;;;;;;;43.10;18.87;;;8.40;99.90;;;;;;5031905;28;20590;-81
2022/12/21 11:18:34;;;;;;;43.37;18.13;;;8.40;99.90;;;;;;5031044;28;20583;-81
2022/12/21 11:21:01;;;;;;;48.77;19.30;;;8.40;99.90;;;;;;5022641;28;20229;-79
2022/12/21 11:23:30;;;;;;;46.07;17.87;;;8.40;99.90;;;;;;5014923;28;20199;-80
2022/12/21 11:25:57;;;;;;;41.80;18.17;;;8.40;99.90;;;;;;5015177;28;20291;-79
2022/12/21 11:28:25;;;;;;;35.40;17.07;;;8.50;99.90;;;;;;5015557;28;20716;-80
2022/12/21 11:30:54;;;;;;;41.00;18.40;;;8.50;99.90;;;;;;5016048;28;20242;-80
2022/12/21 11:33:22;;;;;;;37.47;18.77;;;8.50;99.90;;;;;;5014987;28;20230;-80
2022/12/21 11:36:15;;;;;;;46.37;20.37;;;8.50;99.90;;;;;;5015177;28;20881;-79
2022/12/21 11:38:44;;;;;;;37.73;18.40;;;8.50;99.90;;;;;;5014212;28;20270;-79
2022/12/21 11:41:21;;;;;;;35.70;18.83;;;8.50;99.90;;;;;;5032985;28;20211;-80
2022/12/21 11:43:50;;;;;;;34.90;18.83;;;8.50;99.90;;;;;;5034256;28;20186;-79
2022/12/21 11:46:37;;;;;;;39.37;18.60;;;8.50;99.90;;;;;;5014518;28;20236;-79
2022/12/21 11:49:37;;;;;;;44.80;18.67;;;8.50;99.90;;;;;;5013318;28;20298;-80
2022/12/21 11:52:13;;;;;;;45.27;18.30;;;8.50;99.90;;;;;;5013955;28;20239;-79
2022/12/21 11:54:53;;;;;;;41.43;18.80;;;8.50;99.90;;;;;;5015562;28;20195;-80
2022/12/21 11:57:35;;;;;;;30.57;17.27;;;8.50;99.90;;;;;;5015872;28;20278;-80
2022/12/21 12:00:06;;;;;;;40.13;18.60;;;8.50;99.90;;;;;;5015452;28;20756;-80
2022/12/21 12:03:12;;;;;;;50.27;21.13;;;8.60;99.90;;;;;;5015416;28;20235;-80
2022/12/21 12:06:01;;;;;;;38.17;18.83;;;8.60;99.90;;;;;;5014200;28;20230;-80
2022/12/21 12:08:43;;;;;;;41.50;18.13;;;8.60;99.90;;;;;;5014272;28;20220;-81
2022/12/21 12:11:29;;;;;;;40.83;18.67;;;8.60;99.90;;;;;;5015745;28;20566;-80
2022/12/21 12:14:14;;;;;;;33.33;18.47;;;8.50;99.90;;;;;;5015361;28;20230;-80
2022/12/21 12:16:51;;;;;;;30.97;17.57;;;8.50;99.90;;;;;;5015613;28;20619;-80
2022/12/21 12:19:29;;;;;;;39.03;19.27;;;8.60;99.90;;;;;;5015797;28;20214;-82
2022/12/21 12:22:14;;;;;;;40.17;18.50;;;8.60;99.90;;;;;;5014928;28;20226;-81
2022/12/21 12:25:08;;;;;;;34.90;17.57;;;8.70;99.90;;;;;;5015919;28;20222;-82
2022/12/21 12:27:52;;;;;;;35.03;16.20;;;8.70;99.90;;;;;;5016013;28;20233;-82
2022/12/21 12:30:22;;;;;;;34.97;17.93;;;8.60;99.90;;;;;;5016049;28;20281;-82
2022/12/21 12:33:03;;;;;;;30.53;17.00;;;8.60;99.90;;;;;;5016516;28;20286;-82
2022/12/21 12:35:49;;;;;;;28.93;18.13;;;8.70;99.90;;;;;;5015526;28;20274;-81
2022/12/21 12:38:24;;;;;;;34.80;17.30;;;8.70;99.90;;;;;;5015298;28;20584;-81
2022/12/21 12:41:05;;;;;;;28.40;14.87;;;8.60;99.90;;;;;;5030709;28;20198;-80
2022/12/21 12:43:43;;;;;;;27.90;16.77;;;8.70;99.90;;;;;;5034041;28;20234;-80
2022/12/21 12:46:19;;;;;;;29.33;14.40;;;8.70;99.90;;;;;;5014361;28;20282;-80
2022/12/21 12:48:55;;;;;;;30.83;15.90;;;8.70;99.90;;;;;;5016231;28;20226;-79
2022/12/21 12:51:26;;;;;;;27.13;15.67;;;8.70;99.90;;;;;;5026859;28;20266;-80
2022/12/21 12:54:00;;;;;;;29.07;16.13;;;8.70;99.90;;;;;;5015992;28;20223;-80
2022/12/21 12:56:40;;;;;;;30.90;15.37;;;8.70;99.90;;;;;;5033372;28;20538;-79
2022/12/21 12:59:14;;;;;;;32.20;17.17;;;8.80;99.90;;;;;;5033047;28;20191;-80
2022/12/21 13:01:48;;;;;;;34.40;17.80;;;8.80;99.90;;;;;;5034591;28;20217;-80
2022/12/21 13:04:38;;;;;;;31.70;18.47;;;8.80;99.90;;;;;;5031656;28;20199;-80
2022/12/21 13:07:15;;;;;;;31.90;16.60;;;8.80;99.90;;;;;;5027891;28;20265;-82
2022/12/21 13:09:57;;;;;;;31.70;17.30;;;8.90;99.90;;;;;;5041600;28;20344;-81
2022/12/21 13:12:29;;;;;;;26.17;16.40;;;8.90;99.90;;;;;;5052043;28;20199;-80